sensor_id;sensor_type;location;lat;lon;timestamp;temperature;humidity
20744;DHT22;56303;52.160;-0.428;2023-07-24T01:27:51;19.50;99.90
20744;DHT22;56303;52.160;-0.428;2023-07-24T01:30:19;19.40;99.90
20744;DHT22;56303;52.160;-0.428;2023-07-24T01:32:46;19.40;99.90
20744;DHT22;56303;52.160;-0.428;2023-07-24T01:35:14;19.40;99.90
20744;DHT22;56303;52.160;-0.428;2023-07-24T01:37:43;19.40;99.90
20744;DHT22;56303;52.160;-0.428;2023-07-24T01:40:11;19.10;99.90
20744;DHT22;56303;52.160;-0.428;2023-07-24T01:42:38;19.00;99.90
20744;DHT22;56303;52.160;-0.428;2023-07-24T01:45:05;19.00;99.90
20744;DHT22;56303;52.160;-0.428;2023-07-24T01:47:32;18.70;99.90
20744;DHT22;56303;52.160;-0.428;2023-07-24T01:49:59;18.60;99.90
20744;DHT22;56303;52.160;-0.428;2023-07-24T01:52:26;18.20;99.90
20744;DHT22;56303;52.160;-0.428;2023-07-24T01:54:53;18.00;99.90
20744;DHT22;56303;52.160;-0.428;2023-07-24T01:57:20;17.90;99.90
20744;DHT22;56303;52.160;-0.428;2023-07-24T01:59:47;18.30;99.90
20744;DHT22;56303;52.160;-0.428;2023-07-24T02:02:15;18.40;99.90
20744;DHT22;56303;52.160;-0.428;2023-07-24T02:04:42;17.80;99.90
20744;DHT22;56303;52.160;-0.428;2023-07-24T02:07:09;17.60;99.90
20744;DHT22;56303;52.160;-0.428;2023-07-24T02:09:36;17.60;99.90
20744;DHT22;56303;52.160;-0.428;2023-07-24T02:12:03;17.50;99.90
20744;DHT22;56303;52.160;-0.428;2023-07-24T02:14:30;17.70;99.90
20744;DHT22;56303;52.160;-0.428;2023-07-24T02:16:57;18.00;99.90
20744;DHT22;56303;52.160;-0.428;2023-07-24T02:19:24;17.70;99.90
20744;DHT22;56303;52.160;-0.428;2023-07-24T02:21:50;17.50;99.90
20744;DHT22;56303;52.160;-0.428;2023-07-24T02:24:17;17.70;99.90
20744;DHT22;56303;52.160;-0.428;2023-07-24T02:26:45;17.90;99.90
20744;DHT22;56303;52.160;-0.428;2023-07-24T02:29:12;17.90;99.90
20744;DHT22;56303;52.160;-0.428;2023-07-24T02:31:39;17.70;99.90
20744;DHT22;56303;52.160;-0.428;2023-07-24T02:34:06;17.60;99.90
20744;DHT22;56303;52.160;-0.428;2023-07-24T02:36:33;17.50;99.90
20744;DHT22;56303;52.160;-0.428;2023-07-24T02:38:59;17.70;99.90
20744;DHT22;56303;52.160;-0.428;2023-07-24T02:41:26;17.50;99.90
20744;DHT22;56303;52.160;-0.428;2023-07-24T02:43:53;17.30;99.90
20744;DHT22;56303;52.160;-0.428;2023-07-24T02:46:20;17.00;99.90
20744;DHT22;56303;52.160;-0.428;2023-07-24T02:48:47;17.00;99.90
20744;DHT22;56303;52.160;-0.428;2023-07-24T02:51:14;17.10;99.90
20744;DHT22;56303;52.160;-0.428;2023-07-24T02:53:40;17.40;99.90
20744;DHT22;56303;52.160;-0.428;2023-07-24T02:56:07;17.30;99.90
20744;DHT22;56303;52.160;-0.428;2023-07-24T02:58:34;17.40;99.90
20744;DHT22;56303;52.160;-0.428;2023-07-24T03:01:05;17.30;99.90
20744;DHT22;56303;52.160;-0.428;2023-07-24T03:03:34;17.30;99.90
20744;DHT22;56303;52.160;-0.428;2023-07-24T03:06:01;16.90;99.90
20744;DHT22;56303;52.160;-0.428;2023-07-24T03:08:28;16.80;99.90
20744;DHT22;56303;52.160;-0.428;2023-07-24T03:10:55;16.20;99.90
20744;DHT22;56303;52.160;-0.428;2023-07-24T03:13:22;16.10;99.90
20744;DHT22;56303;52.160;-0.428;2023-07-24T03:15:58;16.10;99.90
20744;DHT22;56303;52.160;-0.428;2023-07-24T03:18:25;15.90;99.90
20744;DHT22;56303;52.160;-0.428;2023-07-24T03:20:52;15.40;99.90
20744;DHT22;56303;52.160;-0.428;2023-07-24T03:23:19;15.40;99.90
20744;DHT22;56303;52.160;-0.428;2023-07-24T03:25:47;15.20;99.90
20744;DHT22;56303;52.160;-0.428;2023-07-24T03:28:13;15.00;99.90
20744;DHT22;56303;52.160;-0.428;2023-07-24T03:30:40;14.90;99.90
20744;DHT22;56303;52.160;-0.428;2023-07-24T03:33:07;15.00;99.90
20744;DHT22;56303;52.160;-0.428;2023-07-24T03:35:34;15.00;99.90
20744;DHT22;56303;52.160;-0.428;2023-07-24T03:38:01;14.90;99.90
20744;DHT22;56303;52.160;-0.428;2023-07-24T03:40:28;15.20;99.90
20744;DHT22;56303;52.160;-0.428;2023-07-24T03:42:55;15.10;99.90
20744;DHT22;56303;52.160;-0.428;2023-07-24T03:45:22;15.00;99.90
20744;DHT22;56303;52.160;-0.428;2023-07-24T03:47:49;15.00;99.90
20744;DHT22;56303;52.160;-0.428;2023-07-24T03:50:16;14.80;99.90
20744;DHT22;56303;52.160;-0.428;2023-07-24T03:52:43;14.60;99.90
20744;DHT22;56303;52.160;-0.428;2023-07-24T03:55:10;14.70;99.90
20744;DHT22;56303;52.160;-0.428;2023-07-24T03:57:37;14.70;99.90
20744;DHT22;56303;52.160;-0.428;2023-07-24T04:00:04;14.60;99.90
20744;DHT22;56303;52.160;-0.428;2023-07-24T04:02:32;14.60;99.90
20744;DHT22;56303;52.160;-0.428;2023-07-24T04:04:59;14.70;99.90
20744;DHT22;56303;52.160;-0.428;2023-07-24T04:07:25;14.70;99.90
20744;DHT22;56303;52.160;-0.428;2023-07-24T04:09:52;14.60;99.90
20744;DHT22;56303;52.160;-0.428;2023-07-24T04:12:19;14.50;99.90
20744;DHT22;56303;52.160;-0.428;2023-07-24T04:14:46;14.60;99.90
20744;DHT22;56303;52.160;-0.428;2023-07-24T04:17:15;14.50;99.90
20744;DHT22;56303;52.160;-0.428;2023-07-24T04:19:42;14.50;99.90
20744;DHT22;56303;52.160;-0.428;2023-07-24T04:22:09;14.60;99.90
20744;DHT22;56303;52.160;-0.428;2023-07-24T04:24:36;14.50;99.90
20744;DHT22;56303;52.160;-0.428;2023-07-24T04:27:03;14.50;99.90
20744;DHT22;56303;52.160;-0.428;2023-07-24T04:29:30;14.60;99.90
20744;DHT22;56303;52.160;-0.428;2023-07-24T04:31:57;14.50;99.90
20744;DHT22;56303;52.160;-0.428;2023-07-24T04:34:24;14.40;99.90
20744;DHT22;56303;52.160;-0.428;2023-07-24T04:36:50;14.50;99.90
20744;DHT22;56303;52.160;-0.428;2023-07-24T04:39:17;14.60;99.90
20744;DHT22;56303;52.160;-0.428;2023-07-24T04:41:44;14.80;99.90
20744;DHT22;56303;52.160;-0.428;2023-07-24T04:44:11;14.70;99.90
20744;DHT22;56303;52.160;-0.428;2023-07-24T04:46:38;14.50;99.90
20744;DHT22;56303;52.160;-0.428;2023-07-24T04:49:05;14.50;99.90
20744;DHT22;56303;52.160;-0.428;2023-07-24T04:51:32;14.60;99.90
20744;DHT22;56303;52.160;-0.428;2023-07-24T04:54:02;14.50;99.90
20744;DHT22;56303;52.160;-0.428;2023-07-24T04:56:29;14.50;99.90
20744;DHT22;56303;52.160;-0.428;2023-07-24T04:58:56;14.60;99.90
20744;DHT22;56303;52.160;-0.428;2023-07-24T05:01:23;14.60;99.90
20744;DHT22;56303;52.160;-0.428;2023-07-24T05:03:50;14.60;99.90
20744;DHT22;56303;52.160;-0.428;2023-07-24T05:06:16;14.60;99.90
20744;DHT22;56303;52.160;-0.428;2023-07-24T05:08:43;14.60;99.90
20744;DHT22;56303;52.160;-0.428;2023-07-24T05:11:10;14.60;99.90
20744;DHT22;56303;52.160;-0.428;2023-07-24T05:13:37;14.70;99.90
20744;DHT22;56303;52.160;-0.428;2023-07-24T05:16:04;14.80;99.90
20744;DHT22;56303;52.160;-0.428;2023-07-24T05:18:31;14.80;99.90
20744;DHT22;56303;52.160;-0.428;2023-07-24T05:20:58;14.80;99.90
20744;DHT22;56303;52.160;-0.428;2023-07-24T05:23:25;14.60;99.90
20744;DHT22;56303;52.160;-0.428;2023-07-24T05:25:58;14.60;99.90
20744;DHT22;56303;52.160;-0.428;2023-07-24T05:28:30;14.80;99.90
20744;DHT22;56303;52.160;-0.428;2023-07-24T05:31:04;14.90;99.90
20744;DHT22;56303;52.160;-0.428;2023-07-24T05:33:31;15.00;99.90
20744;DHT22;56303;52.160;-0.428;2023-07-24T05:36:03;15.10;99.90
20744;DHT22;56303;52.160;-0.428;2023-07-24T05:38:30;15.10;99.90
20744;DHT22;56303;52.160;-0.428;2023-07-24T05:40:58;15.10;99.90
20744;DHT22;56303;52.160;-0.428;2023-07-24T05:43:26;15.10;99.90
20744;DHT22;56303;52.160;-0.428;2023-07-24T05:45:54;14.90;99.90
20744;DHT22;56303;52.160;-0.428;2023-07-24T05:48:22;14.80;99.90
20744;DHT22;56303;52.160;-0.428;2023-07-24T05:50:50;14.80;99.90
20744;DHT22;56303;52.160;-0.428;2023-07-24T05:53:17;14.70;99.90
20744;DHT22;56303;52.160;-0.428;2023-07-24T05:55:44;14.60;99.90
20744;DHT22;56303;52.160;-0.428;2023-07-24T05:58:11;14.70;99.90
20744;DHT22;56303;52.160;-0.428;2023-07-24T06:00:38;15.10;99.90
20744;DHT22;56303;52.160;-0.428;2023-07-24T06:03:05;15.20;99.90
20744;DHT22;56303;52.160;-0.428;2023-07-24T06:05:34;14.90;99.90
20744;DHT22;56303;52.160;-0.428;2023-07-24T06:08:01;14.70;99.90
20744;DHT22;56303;52.160;-0.428;2023-07-24T06:10:28;14.70;99.90
20744;DHT22;56303;52.160;-0.428;2023-07-24T06:12:55;14.80;99.90
20744;DHT22;56303;52.160;-0.428;2023-07-24T06:15:22;14.80;99.90
20744;DHT22;56303;52.160;-0.428;2023-07-24T06:17:49;14.80;99.90
20744;DHT22;56303;52.160;-0.428;2023-07-24T06:20:20;14.80;99.90
20744;DHT22;56303;52.160;-0.428;2023-07-24T06:22:47;14.60;99.90
20744;DHT22;56303;52.160;-0.428;2023-07-24T06:25:14;14.70;99.90
20744;DHT22;56303;52.160;-0.428;2023-07-24T06:27:41;14.60;99.90
20744;DHT22;56303;52.160;-0.428;2023-07-24T06:30:07;14.60;99.90
20744;DHT22;56303;52.160;-0.428;2023-07-24T06:32:42;14.40;99.90
20744;DHT22;56303;52.160;-0.428;2023-07-24T06:35:09;14.60;99.90
20744;DHT22;56303;52.160;-0.428;2023-07-24T06:37:36;14.50;99.90
20744;DHT22;56303;52.160;-0.428;2023-07-24T06:40:06;14.70;99.90
20744;DHT22;56303;52.160;-0.428;2023-07-24T06:42:34;14.90;99.90
20744;DHT22;56303;52.160;-0.428;2023-07-24T06:45:01;14.90;99.90
20744;DHT22;56303;52.160;-0.428;2023-07-24T06:47:27;14.80;99.90
20744;DHT22;56303;52.160;-0.428;2023-07-24T06:49:54;15.10;99.90
20744;DHT22;56303;52.160;-0.428;2023-07-24T06:52:21;14.80;99.90
20744;DHT22;56303;52.160;-0.428;2023-07-24T06:54:48;14.80;99.90
20744;DHT22;56303;52.160;-0.428;2023-07-24T06:57:15;14.80;99.90
20744;DHT22;56303;52.160;-0.428;2023-07-24T06:59:42;15.10;99.90
20744;DHT22;56303;52.160;-0.428;2023-07-24T07:02:09;15.10;99.90
20744;DHT22;56303;52.160;-0.428;2023-07-24T07:04:36;14.80;99.90
20744;DHT22;56303;52.160;-0.428;2023-07-24T07:07:03;15.20;99.90
20744;DHT22;56303;52.160;-0.428;2023-07-24T07:09:30;15.10;99.90
20744;DHT22;56303;52.160;-0.428;2023-07-24T07:11:57;15.20;99.90
20744;DHT22;56303;52.160;-0.428;2023-07-24T07:14:24;15.10;99.90
20744;DHT22;56303;52.160;-0.428;2023-07-24T07:16:51;15.20;99.90
20744;DHT22;56303;52.160;-0.428;2023-07-24T07:19:18;15.00;99.90
20744;DHT22;56303;52.160;-0.428;2023-07-24T07:21:45;14.90;99.90
20744;DHT22;56303;52.160;-0.428;2023-07-24T07:24:12;15.00;99.90
20744;DHT22;56303;52.160;-0.428;2023-07-24T07:26:39;15.10;99.90
20744;DHT22;56303;52.160;-0.428;2023-07-24T07:29:05;15.30;99.90
20744;DHT22;56303;52.160;-0.428;2023-07-24T07:31:32;15.20;99.90
20744;DHT22;56303;52.160;-0.428;2023-07-24T07:33:59;15.00;99.90
20744;DHT22;56303;52.160;-0.428;2023-07-24T07:36:26;15.00;99.90
20744;DHT22;56303;52.160;-0.428;2023-07-24T07:38:54;15.30;99.90
20744;DHT22;56303;52.160;-0.428;2023-07-24T07:41:21;15.20;99.90
20744;DHT22;56303;52.160;-0.428;2023-07-24T07:43:48;15.00;99.90
20744;DHT22;56303;52.160;-0.428;2023-07-24T07:46:14;15.00;99.90
20744;DHT22;56303;52.160;-0.428;2023-07-24T07:48:42;14.90;99.90
20744;DHT22;56303;52.160;-0.428;2023-07-24T07:51:09;14.90;99.90
20744;DHT22;56303;52.160;-0.428;2023-07-24T07:53:35;14.80;99.90
20744;DHT22;56303;52.160;-0.428;2023-07-24T07:56:02;14.60;99.90
20744;DHT22;56303;52.160;-0.428;2023-07-24T07:58:29;15.10;99.90
20744;DHT22;56303;52.160;-0.428;2023-07-24T08:00:56;15.20;99.90
20744;DHT22;56303;52.160;-0.428;2023-07-24T08:03:23;15.10;99.90
20744;DHT22;56303;52.160;-0.428;2023-07-24T08:05:50;15.20;99.90
20744;DHT22;56303;52.160;-0.428;2023-07-24T08:08:17;15.40;99.90
20744;DHT22;56303;52.160;-0.428;2023-07-24T08:10:44;15.30;99.90
20744;DHT22;56303;52.160;-0.428;2023-07-24T08:13:11;15.50;99.90
20744;DHT22;56303;52.160;-0.428;2023-07-24T08:15:38;15.40;99.90
20744;DHT22;56303;52.160;-0.428;2023-07-24T08:18:06;15.40;99.90
20744;DHT22;56303;52.160;-0.428;2023-07-24T08:20:37;15.10;99.90
20744;DHT22;56303;52.160;-0.428;2023-07-24T08:23:04;15.10;99.90
20744;DHT22;56303;52.160;-0.428;2023-07-24T08:25:31;15.30;99.90
20744;DHT22;56303;52.160;-0.428;2023-07-24T08:27:58;15.40;99.90
20744;DHT22;56303;52.160;-0.428;2023-07-24T08:30:27;15.60;99.90
20744;DHT22;56303;52.160;-0.428;2023-07-24T08:32:55;15.60;99.90
20744;DHT22;56303;52.160;-0.428;2023-07-24T08:35:23;15.60;99.90
20744;DHT22;56303;52.160;-0.428;2023-07-24T08:37:49;15.20;99.90
20744;DHT22;56303;52.160;-0.428;2023-07-24T08:40:16;14.90;99.90
20744;DHT22;56303;52.160;-0.428;2023-07-24T08:42:44;15.20;99.90
20744;DHT22;56303;52.160;-0.428;2023-07-24T08:45:12;15.30;99.90
20744;DHT22;56303;52.160;-0.428;2023-07-24T08:47:43;15.40;99.90
20744;DHT22;56303;52.160;-0.428;2023-07-24T08:50:13;15.20;99.90
20744;DHT22;56303;52.160;-0.428;2023-07-24T08:52:42;15.30;99.90
20744;DHT22;56303;52.160;-0.428;2023-07-24T08:55:10;15.20;99.90
20744;DHT22;56303;52.160;-0.428;2023-07-24T08:57:37;15.10;99.90
20744;DHT22;56303;52.160;-0.428;2023-07-24T09:00:05;15.20;99.90
20744;DHT22;56303;52.160;-0.428;2023-07-24T09:02:36;15.00;99.90
20744;DHT22;56303;52.160;-0.428;2023-07-24T09:05:03;15.30;99.90
20744;DHT22;56303;52.160;-0.428;2023-07-24T09:07:31;15.60;99.90
20744;DHT22;56303;52.160;-0.428;2023-07-24T09:09:58;15.60;99.90
20744;DHT22;56303;52.160;-0.428;2023-07-24T09:12:25;15.60;99.90
20744;DHT22;56303;52.160;-0.428;2023-07-24T09:15:05;15.90;99.90
20744;DHT22;56303;52.160;-0.428;2023-07-24T09:17:34;15.70;99.90
20744;DHT22;56303;52.160;-0.428;2023-07-24T09:20:02;16.00;99.90
20744;DHT22;56303;52.160;-0.428;2023-07-24T09:22:30;15.60;99.90
20744;DHT22;56303;52.160;-0.428;2023-07-24T09:24:59;15.40;99.90
20744;DHT22;56303;52.160;-0.428;2023-07-24T09:27:29;15.70;99.90
20744;DHT22;56303;52.160;-0.428;2023-07-24T09:29:58;15.40;99.90
20744;DHT22;56303;52.160;-0.428;2023-07-24T09:32:27;15.40;99.90
20744;DHT22;56303;52.160;-0.428;2023-07-24T09:34:54;15.60;99.90
20744;DHT22;56303;52.160;-0.428;2023-07-24T09:39:52;15.50;99.90
20744;DHT22;56303;52.160;-0.428;2023-07-24T09:42:37;15.30;99.90
20744;DHT22;56303;52.160;-0.428;2023-07-24T09:45:25;14.90;99.90
20744;DHT22;56303;52.160;-0.428;2023-07-24T09:47:52;14.90;99.90
20744;DHT22;56303;52.160;-0.428;2023-07-24T09:50:29;14.70;99.90
20744;DHT22;56303;52.160;-0.428;2023-07-24T09:52:58;14.60;99.90
20744;DHT22;56303;52.160;-0.428;2023-07-24T09:55:38;14.60;99.90
20744;DHT22;56303;52.160;-0.428;2023-07-24T09:58:11;14.70;99.90
20744;DHT22;56303;52.160;-0.428;2023-07-24T10:00:38;14.70;99.90
20744;DHT22;56303;52.160;-0.428;2023-07-24T10:03:05;14.90;99.90
20744;DHT22;56303;52.160;-0.428;2023-07-24T10:05:33;14.70;99.90
20744;DHT22;56303;52.160;-0.428;2023-07-24T10:08:00;14.80;99.90
20744;DHT22;56303;52.160;-0.428;2023-07-24T10:10:27;14.90;99.90
20744;DHT22;56303;52.160;-0.428;2023-07-24T10:12:56;15.00;99.90
20744;DHT22;56303;52.160;-0.428;2023-07-24T10:15:22;15.20;99.90
20744;DHT22;56303;52.160;-0.428;2023-07-24T10:17:49;15.30;99.90
20744;DHT22;56303;52.160;-0.428;2023-07-24T10:20:35;15.50;99.90
20744;DHT22;56303;52.160;-0.428;2023-07-24T10:23:03;15.30;99.90
20744;DHT22;56303;52.160;-0.428;2023-07-24T10:25:31;15.40;99.90
20744;DHT22;56303;52.160;-0.428;2023-07-24T10:28:05;15.60;99.90
20744;DHT22;56303;52.160;-0.428;2023-07-24T10:30:34;15.40;99.90
20744;DHT22;56303;52.160;-0.428;2023-07-24T10:33:13;15.40;99.90
20744;DHT22;56303;52.160;-0.428;2023-07-24T10:35:43;15.60;99.90
20744;DHT22;56303;52.160;-0.428;2023-07-24T10:38:12;15.60;99.90
20744;DHT22;56303;52.160;-0.428;2023-07-24T10:40:41;15.70;99.90
20744;DHT22;56303;52.160;-0.428;2023-07-24T10:43:27;16.00;99.90
20744;DHT22;56303;52.160;-0.428;2023-07-24T10:45:54;16.30;99.90
20744;DHT22;56303;52.160;-0.428;2023-07-24T10:48:24;16.30;99.90
20744;DHT22;56303;52.160;-0.428;2023-07-24T10:50:52;16.10;99.90
20744;DHT22;56303;52.160;-0.428;2023-07-24T10:53:21;15.90;99.90
20744;DHT22;56303;52.160;-0.428;2023-07-24T10:55:50;16.20;99.90
20744;DHT22;56303;52.160;-0.428;2023-07-24T10:58:17;16.80;99.90
20744;DHT22;56303;52.160;-0.428;2023-07-24T11:00:45;17.00;99.90
20744;DHT22;56303;52.160;-0.428;2023-07-24T11:03:14;16.50;99.90
20744;DHT22;56303;52.160;-0.428;2023-07-24T11:05:42;16.90;99.90
20744;DHT22;56303;52.160;-0.428;2023-07-24T11:08:14;16.60;99.90
20744;DHT22;56303;52.160;-0.428;2023-07-24T11:10:49;16.40;99.90
20744;DHT22;56303;52.160;-0.428;2023-07-24T11:13:18;16.10;99.90
20744;DHT22;56303;52.160;-0.428;2023-07-24T11:15:46;16.30;99.90
20744;DHT22;56303;52.160;-0.428;2023-07-24T11:18:13;16.30;99.90
20744;DHT22;56303;52.160;-0.428;2023-07-24T11:20:46;17.00;99.90
20744;DHT22;56303;52.160;-0.428;2023-07-24T11:23:13;16.90;99.90
20744;DHT22;56303;52.160;-0.428;2023-07-24T11:25:41;16.90;99.90
20744;DHT22;56303;52.160;-0.428;2023-07-24T11:28:12;17.10;99.90
20744;DHT22;56303;52.160;-0.428;2023-07-24T11:30:39;17.70;99.90
20744;DHT22;56303;52.160;-0.428;2023-07-24T11:33:09;17.50;99.90
20744;DHT22;56303;52.160;-0.428;2023-07-24T11:35:37;17.80;99.90
20744;DHT22;56303;52.160;-0.428;2023-07-24T11:38:10;18.00;99.90
20744;DHT22;56303;52.160;-0.428;2023-07-24T11:40:40;17.90;99.90
20744;DHT22;56303;52.160;-0.428;2023-07-24T11:43:24;17.50;99.90
20744;DHT22;56303;52.160;-0.428;2023-07-24T11:45:52;17.90;99.90
20744;DHT22;56303;52.160;-0.428;2023-07-24T11:48:24;18.30;99.90
20744;DHT22;56303;52.160;-0.428;2023-07-24T11:50:55;18.60;99.90
20744;DHT22;56303;52.160;-0.428;2023-07-24T11:53:29;18.00;99.90
20744;DHT22;56303;52.160;-0.428;2023-07-24T11:55:58;17.90;99.90
20744;DHT22;56303;52.160;-0.428;2023-07-24T11:58:27;17.80;99.90
20744;DHT22;56303;52.160;-0.428;2023-07-24T12:00:54;17.70;99.90
20744;DHT22;56303;52.160;-0.428;2023-07-24T12:03:22;17.80;99.90
20744;DHT22;56303;52.160;-0.428;2023-07-24T12:05:52;17.80;99.90
20744;DHT22;56303;52.160;-0.428;2023-07-24T12:08:30;18.30;99.90
20744;DHT22;56303;52.160;-0.428;2023-07-24T12:10:58;18.70;99.90
20744;DHT22;56303;52.160;-0.428;2023-07-24T12:13:24;18.80;99.90
20744;DHT22;56303;52.160;-0.428;2023-07-24T12:15:51;18.70;99.90
20744;DHT22;56303;52.160;-0.428;2023-07-24T12:18:18;18.40;99.90
20744;DHT22;56303;52.160;-0.428;2023-07-24T12:20:46;18.70;99.90
20744;DHT22;56303;52.160;-0.428;2023-07-24T12:23:13;18.80;99.90
20744;DHT22;56303;52.160;-0.428;2023-07-24T12:25:40;19.10;99.90
20744;DHT22;56303;52.160;-0.428;2023-07-24T12:28:07;18.80;99.90
20744;DHT22;56303;52.160;-0.428;2023-07-24T12:30:34;18.80;99.90
20744;DHT22;56303;52.160;-0.428;2023-07-24T12:33:01;18.90;99.90
20744;DHT22;56303;52.160;-0.428;2023-07-24T12:35:28;18.70;99.90
20744;DHT22;56303;52.160;-0.428;2023-07-24T12:37:55;18.70;99.90
20744;DHT22;56303;52.160;-0.428;2023-07-24T12:40:22;18.40;99.90
20744;DHT22;56303;52.160;-0.428;2023-07-24T12:42:49;18.00;99.90
20744;DHT22;56303;52.160;-0.428;2023-07-24T12:45:16;18.10;99.90
20744;DHT22;56303;52.160;-0.428;2023-07-24T12:47:43;18.20;99.90
20744;DHT22;56303;52.160;-0.428;2023-07-24T12:50:10;18.10;99.90
20744;DHT22;56303;52.160;-0.428;2023-07-24T12:52:36;18.20;99.90
20744;DHT22;56303;52.160;-0.428;2023-07-24T12:55:04;18.20;99.90
20744;DHT22;56303;52.160;-0.428;2023-07-24T12:57:31;18.10;99.90
20744;DHT22;56303;52.160;-0.428;2023-07-24T12:59:58;17.80;99.90
20744;DHT22;56303;52.160;-0.428;2023-07-24T13:02:25;17.40;99.90
20744;DHT22;56303;52.160;-0.428;2023-07-24T13:04:52;16.80;99.90
20744;DHT22;56303;52.160;-0.428;2023-07-24T13:07:19;16.60;99.90
20744;DHT22;56303;52.160;-0.428;2023-07-24T13:09:46;16.80;99.90
20744;DHT22;56303;52.160;-0.428;2023-07-24T13:12:13;16.60;99.90
20744;DHT22;56303;52.160;-0.428;2023-07-24T13:14:39;16.60;99.90
20744;DHT22;56303;52.160;-0.428;2023-07-24T13:17:09;16.60;99.90
20744;DHT22;56303;52.160;-0.428;2023-07-24T13:19:36;16.80;99.90
20744;DHT22;56303;52.160;-0.428;2023-07-24T13:22:03;17.00;99.90
20744;DHT22;56303;52.160;-0.428;2023-07-24T13:24:30;16.90;99.90
20744;DHT22;56303;52.160;-0.428;2023-07-24T13:26:57;16.80;99.90
20744;DHT22;56303;52.160;-0.428;2023-07-24T13:29:24;16.60;99.90
20744;DHT22;56303;52.160;-0.428;2023-07-24T13:31:52;16.80;99.90
20744;DHT22;56303;52.160;-0.428;2023-07-24T13:34:19;17.30;99.90
20744;DHT22;56303;52.160;-0.428;2023-07-24T13:36:47;17.60;99.90
20744;DHT22;56303;52.160;-0.428;2023-07-24T13:39:14;17.80;99.90
20744;DHT22;56303;52.160;-0.428;2023-07-24T13:41:41;17.90;99.90
20744;DHT22;56303;52.160;-0.428;2023-07-24T13:44:09;18.30;99.90
20744;DHT22;56303;52.160;-0.428;2023-07-24T13:46:36;18.20;99.90
20744;DHT22;56303;52.160;-0.428;2023-07-24T13:49:06;18.20;99.90
20744;DHT22;56303;52.160;-0.428;2023-07-24T13:51:34;18.50;99.90
20744;DHT22;56303;52.160;-0.428;2023-07-24T13:54:01;18.90;99.90
20744;DHT22;56303;52.160;-0.428;2023-07-24T13:56:29;19.40;99.90
20744;DHT22;56303;52.160;-0.428;2023-07-24T13:59:00;19.90;99.90
20744;DHT22;56303;52.160;-0.428;2023-07-24T14:01:27;20.00;99.90
20744;DHT22;56303;52.160;-0.428;2023-07-24T14:03:55;20.00;99.90
20744;DHT22;56303;52.160;-0.428;2023-07-24T14:06:22;19.90;99.90
20744;DHT22;56303;52.160;-0.428;2023-07-24T14:08:49;19.80;99.90
20744;DHT22;56303;52.160;-0.428;2023-07-24T14:11:16;20.10;99.90
20744;DHT22;56303;52.160;-0.428;2023-07-24T14:13:43;19.70;99.90
20744;DHT22;56303;52.160;-0.428;2023-07-24T14:16:11;19.90;99.90
20744;DHT22;56303;52.160;-0.428;2023-07-24T14:18:38;20.80;99.90
20744;DHT22;56303;52.160;-0.428;2023-07-24T14:21:05;21.30;99.90
20744;DHT22;56303;52.160;-0.428;2023-07-24T14:23:32;21.50;99.90
20744;DHT22;56303;52.160;-0.428;2023-07-24T14:25:59;21.10;99.90
20744;DHT22;56303;52.160;-0.428;2023-07-24T14:28:26;20.70;99.90
20744;DHT22;56303;52.160;-0.428;2023-07-24T14:30:52;20.50;99.90
20744;DHT22;56303;52.160;-0.428;2023-07-24T14:33:19;20.30;99.90
20744;DHT22;56303;52.160;-0.428;2023-07-24T14:35:47;20.10;99.90
20744;DHT22;56303;52.160;-0.428;2023-07-24T14:38:14;20.20;99.90
20744;DHT22;56303;52.160;-0.428;2023-07-24T14:40:41;20.40;99.90
20744;DHT22;56303;52.160;-0.428;2023-07-24T14:43:08;20.30;99.90
20744;DHT22;56303;52.160;-0.428;2023-07-24T14:45:35;20.60;99.90
20744;DHT22;56303;52.160;-0.428;2023-07-24T14:48:02;21.00;99.90
20744;DHT22;56303;52.160;-0.428;2023-07-24T14:50:28;21.20;99.90
20744;DHT22;56303;52.160;-0.428;2023-07-24T14:52:55;21.30;99.90
20744;DHT22;56303;52.160;-0.428;2023-07-24T14:55:22;21.10;99.90
20744;DHT22;56303;52.160;-0.428;2023-07-24T14:57:50;21.40;99.90
20744;DHT22;56303;52.160;-0.428;2023-07-24T15:00:17;21.30;99.90
20744;DHT22;56303;52.160;-0.428;2023-07-24T15:02:44;21.50;99.90
20744;DHT22;56303;52.160;-0.428;2023-07-24T15:05:11;21.50;99.90
20744;DHT22;56303;52.160;-0.428;2023-07-24T15:07:38;21.50;99.90
20744;DHT22;56303;52.160;-0.428;2023-07-24T15:10:05;21.50;99.90
20744;DHT22;56303;52.160;-0.428;2023-07-24T15:12:32;21.70;99.90
20744;DHT22;56303;52.160;-0.428;2023-07-24T15:14:59;21.50;99.90
20744;DHT22;56303;52.160;-0.428;2023-07-24T15:17:26;21.70;99.90
20744;DHT22;56303;52.160;-0.428;2023-07-24T15:19:53;21.90;99.90
20744;DHT22;56303;52.160;-0.428;2023-07-24T15:22:20;22.40;99.90
20744;DHT22;56303;52.160;-0.428;2023-07-24T15:24:47;22.20;99.90
20744;DHT22;56303;52.160;-0.428;2023-07-24T15:27:14;22.70;99.90
20744;DHT22;56303;52.160;-0.428;2023-07-24T15:29:41;22.50;99.90
20744;DHT22;56303;52.160;-0.428;2023-07-24T15:32:08;22.50;99.90
20744;DHT22;56303;52.160;-0.428;2023-07-24T15:34:35;22.40;99.90
20744;DHT22;56303;52.160;-0.428;2023-07-24T15:37:05;22.40;99.90
20744;DHT22;56303;52.160;-0.428;2023-07-24T15:39:32;21.80;99.90
20744;DHT22;56303;52.160;-0.428;2023-07-24T15:41:59;22.00;99.90
20744;DHT22;56303;52.160;-0.428;2023-07-24T15:44:26;22.10;99.90
20744;DHT22;56303;52.160;-0.428;2023-07-24T15:46:53;22.50;99.90
20744;DHT22;56303;52.160;-0.428;2023-07-24T15:49:20;22.40;99.90
20744;DHT22;56303;52.160;-0.428;2023-07-24T15:51:47;22.00;99.90
20744;DHT22;56303;52.160;-0.428;2023-07-24T15:54:15;21.40;99.90
20744;DHT22;56303;52.160;-0.428;2023-07-24T15:56:42;21.00;99.90
20744;DHT22;56303;52.160;-0.428;2023-07-24T15:59:08;21.20;99.90
20744;DHT22;56303;52.160;-0.428;2023-07-24T16:01:36;21.20;99.90
20744;DHT22;56303;52.160;-0.428;2023-07-24T16:04:03;21.60;99.90
20744;DHT22;56303;52.160;-0.428;2023-07-24T16:06:30;21.20;99.90
20744;DHT22;56303;52.160;-0.428;2023-07-24T16:08:57;20.30;99.90
20744;DHT22;56303;52.160;-0.428;2023-07-24T16:11:26;19.30;99.90
20744;DHT22;56303;52.160;-0.428;2023-07-24T16:13:54;18.70;99.90
20744;DHT22;56303;52.160;-0.428;2023-07-24T16:16:21;18.10;99.90
20744;DHT22;56303;52.160;-0.428;2023-07-24T16:19:15;18.00;99.90
20744;DHT22;56303;52.160;-0.428;2023-07-24T16:21:44;18.00;99.90
20744;DHT22;56303;52.160;-0.428;2023-07-24T16:24:12;18.20;99.90
20744;DHT22;56303;52.160;-0.428;2023-07-24T16:26:39;18.00;99.90
20744;DHT22;56303;52.160;-0.428;2023-07-24T16:29:06;18.00;99.90
20744;DHT22;56303;52.160;-0.428;2023-07-24T16:31:34;18.30;99.90
20744;DHT22;56303;52.160;-0.428;2023-07-24T16:34:02;18.50;99.90
20744;DHT22;56303;52.160;-0.428;2023-07-24T16:36:30;18.20;99.90
20744;DHT22;56303;52.160;-0.428;2023-07-24T16:38:57;18.40;99.90
20744;DHT22;56303;52.160;-0.428;2023-07-24T16:41:24;18.50;99.90
20744;DHT22;56303;52.160;-0.428;2023-07-24T16:43:52;18.70;99.90
20744;DHT22;56303;52.160;-0.428;2023-07-24T16:46:19;18.50;99.90
20744;DHT22;56303;52.160;-0.428;2023-07-24T16:48:49;18.60;99.90